sensor_id;sensor_type;location;lat;lon;timestamp;pressure;altitude;pressure_sealevel;temperature;humidity
21433;BME280;18592;49.708;10.900;2023-06-26T00:01:54;98571.16;;;25.09;42.06
21433;BME280;18592;49.708;10.900;2023-06-26T00:03:54;98565.44;;;25.05;41.97
21433;BME280;18592;49.708;10.900;2023-06-26T00:05:55;98567.28;;;25.01;42.13
21433;BME280;18592;49.708;10.900;2023-06-26T00:08:00;98555.69;;;24.99;42.26
21433;BME280;18592;49.708;10.900;2023-06-26T00:10:02;98559.16;;;24.96;42.84
21433;BME280;18592;49.708;10.900;2023-06-26T00:12:03;98556.91;;;24.90;42.42
21433;BME280;18592;49.708;10.900;2023-06-26T00:14:03;98558.09;;;24.89;42.29
21433;BME280;18592;49.708;10.900;2023-06-26T00:16:04;98564.34;;;24.86;43.07
21433;BME280;18592;49.708;10.900;2023-06-26T00:18:14;98556.19;;;24.81;42.64
21433;BME280;18592;49.708;10.900;2023-06-26T00:20:15;98557.69;;;24.78;43.01
21433;BME280;18592;49.708;10.900;2023-06-26T00:22:16;98553.13;;;24.74;42.96
21433;BME280;18592;49.708;10.900;2023-06-26T00:24:20;98556.59;;;24.71;43.57
21433;BME280;18592;49.708;10.900;2023-06-26T00:26:27;98559.59;;;24.66;43.10
21433;BME280;18592;49.708;10.900;2023-06-26T00:28:43;98557.50;;;24.62;43.17
21433;BME280;18592;49.708;10.900;2023-06-26T00:30:43;98562.59;;;24.60;43.06
21433;BME280;18592;49.708;10.900;2023-06-26T00:32:43;98562.47;;;24.57;43.25
21433;BME280;18592;49.708;10.900;2023-06-26T00:34:53;98560.72;;;24.52;43.57
21433;BME280;18592;49.708;10.900;2023-06-26T00:36:53;98567.78;;;24.50;43.53
21433;BME280;18592;49.708;10.900;2023-06-26T00:38:54;98559.28;;;24.46;43.48
21433;BME280;18592;49.708;10.900;2023-06-26T00:40:54;98560.31;;;24.42;43.60
21433;BME280;18592;49.708;10.900;2023-06-26T00:42:56;98562.63;;;24.40;43.52
21433;BME280;18592;49.708;10.900;2023-06-26T00:45:07;98567.72;;;24.38;43.70
21433;BME280;18592;49.708;10.900;2023-06-26T00:47:15;98560.06;;;24.35;43.40
21433;BME280;18592;49.708;10.900;2023-06-26T00:49:16;98564.34;;;24.32;43.30
21433;BME280;18592;49.708;10.900;2023-06-26T00:51:17;98571.88;;;24.32;43.30
21433;BME280;18592;49.708;10.900;2023-06-26T00:53:18;98567.31;;;24.27;43.68
21433;BME280;18592;49.708;10.900;2023-06-26T00:55:18;98569.16;;;24.23;43.63
21433;BME280;18592;49.708;10.900;2023-06-26T00:57:19;98574.59;;;24.20;43.97
21433;BME280;18592;49.708;10.900;2023-06-26T00:59:19;98560.19;;;24.18;43.64
21433;BME280;18592;49.708;10.900;2023-06-26T01:01:22;98576.09;;;24.17;43.88
21433;BME280;18592;49.708;10.900;2023-06-26T01:03:27;98575.94;;;24.14;43.99
21433;BME280;18592;49.708;10.900;2023-06-26T01:05:33;98582.22;;;24.11;44.34
21433;BME280;18592;49.708;10.900;2023-06-26T01:07:35;98576.47;;;24.07;44.18
21433;BME280;18592;49.708;10.900;2023-06-26T01:09:36;98573.22;;;24.05;43.93
21433;BME280;18592;49.708;10.900;2023-06-26T01:11:43;98584.19;;;24.01;44.93
21433;BME280;18592;49.708;10.900;2023-06-26T01:13:44;98579.31;;;23.98;44.99
21433;BME280;18592;49.708;10.900;2023-06-26T01:15:46;98571.28;;;23.97;44.67
21433;BME280;18592;49.708;10.900;2023-06-26T01:17:49;98576.41;;;23.95;45.41
21433;BME280;18592;49.708;10.900;2023-06-26T01:19:51;98570.00;;;23.94;44.96
21433;BME280;18592;49.708;10.900;2023-06-26T01:22:07;98575.78;;;23.89;45.70
21433;BME280;18592;49.708;10.900;2023-06-26T01:24:18;98571.22;;;23.85;45.22
21433;BME280;18592;49.708;10.900;2023-06-26T01:26:29;98569.94;;;23.82;44.64
21433;BME280;18592;49.708;10.900;2023-06-26T01:28:37;98560.28;;;23.80;45.18
21433;BME280;18592;49.708;10.900;2023-06-26T01:30:42;98563.72;;;23.77;45.71
21433;BME280;18592;49.708;10.900;2023-06-26T01:32:44;98572.75;;;23.74;45.18
21433;BME280;18592;49.708;10.900;2023-06-26T01:34:45;98565.06;;;23.71;45.19
21433;BME280;18592;49.708;10.900;2023-06-26T01:36:45;98566.25;;;23.70;45.50
21433;BME280;18592;49.708;10.900;2023-06-26T01:38:46;98566.91;;;23.67;45.53
21433;BME280;18592;49.708;10.900;2023-06-26T01:40:46;98562.34;;;23.62;45.73
21433;BME280;18592;49.708;10.900;2023-06-26T01:43:00;98559.41;;;23.59;45.67
21433;BME280;18592;49.708;10.900;2023-06-26T01:45:13;98562.38;;;23.54;46.45
21433;BME280;18592;49.708;10.900;2023-06-26T01:47:29;98569.78;;;23.50;45.87
21433;BME280;18592;49.708;10.900;2023-06-26T01:49:50;98563.59;;;23.44;46.59
21433;BME280;18592;49.708;10.900;2023-06-26T01:51:58;98559.97;;;23.44;46.64
21433;BME280;18592;49.708;10.900;2023-06-26T01:54:02;98556.25;;;23.40;46.34
21433;BME280;18592;49.708;10.900;2023-06-26T01:56:16;98552.47;;;23.35;46.48
21433;BME280;18592;49.708;10.900;2023-06-26T01:58:22;98552.66;;;23.30;46.77
21433;BME280;18592;49.708;10.900;2023-06-26T02:00:37;98558.91;;;23.27;46.37
21433;BME280;18592;49.708;10.900;2023-06-26T02:02:46;98551.22;;;23.24;46.19
21433;BME280;18592;49.708;10.900;2023-06-26T02:04:47;98547.81;;;23.19;46.39
21433;BME280;18592;49.708;10.900;2023-06-26T02:06:48;98553.69;;;23.17;46.53
21433;BME280;18592;49.708;10.900;2023-06-26T02:08:48;98548.47;;;23.16;46.33
21433;BME280;18592;49.708;10.900;2023-06-26T02:10:49;98547.16;;;23.13;46.52
21433;BME280;18592;49.708;10.900;2023-06-26T02:12:50;98551.91;;;23.13;46.35
21433;BME280;18592;49.708;10.900;2023-06-26T02:14:51;98553.25;;;23.07;46.51
21433;BME280;18592;49.708;10.900;2023-06-26T02:16:58;98549.19;;;23.04;46.58
21433;BME280;18592;49.708;10.900;2023-06-26T02:19:00;98551.78;;;23.01;46.70
21433;BME280;18592;49.708;10.900;2023-06-26T02:21:02;98557.19;;;22.97;46.52
21433;BME280;18592;49.708;10.900;2023-06-26T02:23:03;98555.09;;;22.94;46.81
21433;BME280;18592;49.708;10.900;2023-06-26T02:25:12;98554.94;;;22.91;46.96
21433;BME280;18592;49.708;10.900;2023-06-26T02:27:13;98545.28;;;22.88;46.77
21433;BME280;18592;49.708;10.900;2023-06-26T02:29:13;98545.94;;;22.85;47.20
21433;BME280;18592;49.708;10.900;2023-06-26T02:31:14;98554.28;;;22.85;47.19
21433;BME280;18592;49.708;10.900;2023-06-26T02:33:14;98555.28;;;22.81;46.87
21433;BME280;18592;49.708;10.900;2023-06-26T02:35:15;98559.53;;;22.78;47.51
21433;BME280;18592;49.708;10.900;2023-06-26T02:37:18;98553.50;;;22.76;47.17
21433;BME280;18592;49.708;10.900;2023-06-26T02:39:20;98556.94;;;22.73;47.37
21433;BME280;18592;49.708;10.900;2023-06-26T02:41:22;98554.50;;;22.71;47.33
21433;BME280;18592;49.708;10.900;2023-06-26T02:43:28;98549.91;;;22.67;47.46
21433;BME280;18592;49.708;10.900;2023-06-26T02:45:30;98552.22;;;22.65;47.65
21433;BME280;18592;49.708;10.900;2023-06-26T02:47:46;98542.56;;;22.62;47.81
21433;BME280;18592;49.708;10.900;2023-06-26T02:49:46;98549.91;;;22.58;47.74
21433;BME280;18592;49.708;10.900;2023-06-26T02:51:47;98544.66;;;22.57;47.61
21433;BME280;18592;49.708;10.900;2023-06-26T02:53:59;98550.91;;;22.54;47.56
21433;BME280;18592;49.708;10.900;2023-06-26T02:56:06;98542.41;;;22.50;47.61
21433;BME280;18592;49.708;10.900;2023-06-26T02:58:19;98544.22;;;22.46;47.40
21433;BME280;18592;49.708;10.900;2023-06-26T03:00:19;98547.31;;;22.45;47.61
21433;BME280;18592;49.708;10.900;2023-06-26T03:02:23;98545.19;;;22.42;47.69
21433;BME280;18592;49.708;10.900;2023-06-26T03:04:30;98547.47;;;22.40;47.24
21433;BME280;18592;49.708;10.900;2023-06-26T03:06:30;98545.03;;;22.38;47.55
21433;BME280;18592;49.708;10.900;2023-06-26T03:08:30;98546.50;;;22.36;47.44
21433;BME280;18592;49.708;10.900;2023-06-26T03:10:32;98547.16;;;22.33;47.17
21433;BME280;18592;49.708;10.900;2023-06-26T03:12:33;98542.75;;;22.32;47.37
21433;BME280;18592;49.708;10.900;2023-06-26T03:14:34;98546.69;;;22.31;47.56
21433;BME280;18592;49.708;10.900;2023-06-26T03:16:34;98540.63;;;22.29;47.32
21433;BME280;18592;49.708;10.900;2023-06-26T03:18:35;98541.59;;;22.24;47.62
21433;BME280;18592;49.708;10.900;2023-06-26T03:20:38;98543.59;;;22.24;47.43
21433;BME280;18592;49.708;10.900;2023-06-26T03:22:38;98539.50;;;22.21;47.58
21433;BME280;18592;49.708;10.900;2023-06-26T03:24:40;98547.84;;;22.21;47.63
21433;BME280;18592;49.708;10.900;2023-06-26T03:26:53;98538.19;;;22.19;47.52
21433;BME280;18592;49.708;10.900;2023-06-26T03:28:54;98545.22;;;22.16;47.50
21433;BME280;18592;49.708;10.900;2023-06-26T03:30:55;98539.97;;;22.14;47.49
21433;BME280;18592;49.708;10.900;2023-06-26T03:32:55;98556.97;;;22.13;48.04
21433;BME280;18592;49.708;10.900;2023-06-26T03:35:02;98554.50;;;22.11;47.83
21433;BME280;18592;49.708;10.900;2023-06-26T03:37:04;98556.81;;;22.09;47.73
21433;BME280;18592;49.708;10.900;2023-06-26T03:39:14;98549.63;;;22.08;47.90
21433;BME280;18592;49.708;10.900;2023-06-26T03:41:15;98551.91;;;22.06;48.06
21433;BME280;18592;49.708;10.900;2023-06-26T03:43:15;98553.06;;;22.05;47.96
21433;BME280;18592;49.708;10.900;2023-06-26T03:45:33;98548.97;;;22.03;48.32
21433;BME280;18592;49.708;10.900;2023-06-26T03:47:43;98558.13;;;22.03;48.32
21433;BME280;18592;49.708;10.900;2023-06-26T03:49:43;98550.91;;;22.02;48.11
21433;BME280;18592;49.708;10.900;2023-06-26T03:51:45;98548.16;;;22.02;48.26
21433;BME280;18592;49.708;10.900;2023-06-26T03:53:55;98547.66;;;22.00;48.21
21433;BME280;18592;49.708;10.900;2023-06-26T03:55:56;98550.75;;;21.99;48.18
21433;BME280;18592;49.708;10.900;2023-06-26T03:57:57;98540.81;;;21.98;48.22
21433;BME280;18592;49.708;10.900;2023-06-26T03:59:57;98539.50;;;21.95;48.48
21433;BME280;18592;49.708;10.900;2023-06-26T04:01:59;98545.34;;;21.94;48.29
21433;BME280;18592;49.708;10.900;2023-06-26T04:04:00;98539.00;;;21.93;48.60
21433;BME280;18592;49.708;10.900;2023-06-26T04:06:00;98548.94;;;21.94;48.38
21433;BME280;18592;49.708;10.900;2023-06-26T04:08:01;98549.28;;;21.93;48.28
21433;BME280;18592;49.708;10.900;2023-06-26T04:10:08;98542.09;;;21.92;48.58
21433;BME280;18592;49.708;10.900;2023-06-26T04:12:13;98544.38;;;21.90;48.75
21433;BME280;18592;49.708;10.900;2023-06-26T04:14:13;98544.38;;;21.90;48.61
21433;BME280;18592;49.708;10.900;2023-06-26T04:16:14;98543.91;;;21.88;48.35
21433;BME280;18592;49.708;10.900;2023-06-26T04:18:15;98547.81;;;21.87;48.60
21433;BME280;18592;49.708;10.900;2023-06-26T04:20:16;98549.75;;;21.86;48.65
21433;BME280;18592;49.708;10.900;2023-06-26T04:22:16;98550.91;;;21.85;48.47
21433;BME280;18592;49.708;10.900;2023-06-26T04:24:17;98546.97;;;21.86;48.67
21433;BME280;18592;49.708;10.900;2023-06-26T04:26:17;98547.81;;;21.87;48.31
21433;BME280;18592;49.708;10.900;2023-06-26T04:28:17;98549.44;;;21.88;48.50
21433;BME280;18592;49.708;10.900;2023-06-26T04:30:27;98548.63;;;21.87;48.50
21433;BME280;18592;49.708;10.900;2023-06-26T04:32:27;98541.13;;;21.88;48.30
21433;BME280;18592;49.708;10.900;2023-06-26T04:34:28;98549.44;;;21.88;48.68
21433;BME280;18592;49.708;10.900;2023-06-26T04:36:28;98541.13;;;21.88;48.33
21433;BME280;18592;49.708;10.900;2023-06-26T04:38:29;98543.22;;;21.91;48.75
21433;BME280;18592;49.708;10.900;2023-06-26T04:40:45;98537.19;;;21.89;48.38
21433;BME280;18592;49.708;10.900;2023-06-26T04:42:45;98536.06;;;21.90;48.69
21433;BME280;18592;49.708;10.900;2023-06-26T04:44:45;98537.66;;;21.91;48.70
21433;BME280;18592;49.708;10.900;2023-06-26T04:46:47;98536.53;;;21.92;48.83
21433;BME280;18592;49.708;10.900;2023-06-26T04:48:53;98537.03;;;21.94;48.81
21433;BME280;18592;49.708;10.900;2023-06-26T04:50:54;98540.31;;;21.96;48.79
21433;BME280;18592;49.708;10.900;2023-06-26T04:52:56;98541.09;;;21.96;48.80
21433;BME280;18592;49.708;10.900;2023-06-26T04:54:56;98544.41;;;21.98;48.72
21433;BME280;18592;49.708;10.900;2023-06-26T04:56:57;98546.00;;;21.99;48.65
21433;BME280;18592;49.708;10.900;2023-06-26T04:59:31;98544.56;;;22.02;49.12
21433;BME280;18592;49.708;10.900;2023-06-26T05:01:46;98548.63;;;22.04;48.86
21433;BME280;18592;49.708;10.900;2023-06-26T05:04:03;98531.31;;;22.07;48.88
21433;BME280;18592;49.708;10.900;2023-06-26T05:06:13;98537.84;;;22.11;48.69
21433;BME280;18592;49.708;10.900;2023-06-26T05:08:29;98541.94;;;22.14;49.06
21433;BME280;18592;49.708;10.900;2023-06-26T05:10:33;98539.31;;;22.18;48.68
21433;BME280;18592;49.708;10.900;2023-06-26T05:12:42;98539.50;;;22.21;49.18
21433;BME280;18592;49.708;10.900;2023-06-26T05:14:52;98541.78;;;22.28;48.87
21433;BME280;18592;49.708;10.900;2023-06-26T05:16:54;98538.00;;;22.32;48.99
21433;BME280;18592;49.708;10.900;2023-06-26T05:19:08;98535.06;;;22.37;48.42
21433;BME280;18592;49.708;10.900;2023-06-26T05:21:17;98540.13;;;22.44;48.33
21433;BME280;18592;49.708;10.900;2023-06-26T05:23:34;98537.66;;;22.51;48.21
21433;BME280;18592;49.708;10.900;2023-06-26T05:25:36;98539.94;;;22.57;48.32
21433;BME280;18592;49.708;10.900;2023-06-26T05:27:52;98535.53;;;22.65;48.02
21433;BME280;18592;49.708;10.900;2023-06-26T05:29:54;98525.53;;;22.72;48.16
21433;BME280;18592;49.708;10.900;2023-06-26T05:32:05;98536.31;;;22.83;48.05
21433;BME280;18592;49.708;10.900;2023-06-26T05:34:09;98525.16;;;22.91;47.67
21433;BME280;18592;49.708;10.900;2023-06-26T05:36:12;98538.72;;;23.01;47.75
21433;BME280;18592;49.708;10.900;2023-06-26T05:38:14;98526.75;;;23.09;47.45
21433;BME280;18592;49.708;10.900;2023-06-26T05:40:22;98528.81;;;23.21;47.44
21433;BME280;18592;49.708;10.900;2023-06-26T05:42:38;98528.91;;;23.33;47.10
21433;BME280;18592;49.708;10.900;2023-06-26T05:44:40;98523.81;;;23.44;47.20
21433;BME280;18592;49.708;10.900;2023-06-26T05:46:43;98522.28;;;23.55;46.76
21433;BME280;18592;49.708;10.900;2023-06-26T05:49:01;98521.69;;;23.70;46.60
21433;BME280;18592;49.708;10.900;2023-06-26T05:51:07;98524.56;;;23.82;46.39
21433;BME280;18592;49.708;10.900;2023-06-26T05:53:16;98525.09;;;23.96;46.34
21433;BME280;18592;49.708;10.900;2023-06-26T05:55:18;98523.22;;;24.09;46.39
21433;BME280;18592;49.708;10.900;2023-06-26T05:57:24;98513.78;;;24.22;45.96
21433;BME280;18592;49.708;10.900;2023-06-26T05:59:26;98516.28;;;24.35;46.22
21433;BME280;18592;49.708;10.900;2023-06-26T06:12:20;98522.22;;;25.23;45.82
21433;BME280;18592;49.708;10.900;2023-06-26T06:14:26;98516.41;;;25.41;45.47
21433;BME280;18592;49.708;10.900;2023-06-26T06:16:26;98518.63;;;25.59;45.28
21433;BME280;18592;49.708;10.900;2023-06-26T06:18:44;98523.28;;;25.79;45.28
21433;BME280;18592;49.708;10.900;2023-06-26T06:20:44;98521.38;;;25.96;44.76
21433;BME280;18592;49.708;10.900;2023-06-26T06:22:45;98517.16;;;26.14;44.90
21433;BME280;18592;49.708;10.900;2023-06-26T06:24:45;98511.28;;;26.31;45.07
21433;BME280;18592;49.708;10.900;2023-06-26T06:26:46;98509.34;;;26.47;44.65
21433;BME280;18592;49.708;10.900;2023-06-26T06:28:46;98506.22;;;26.64;44.62
21433;BME280;18592;49.708;10.900;2023-06-26T06:30:47;98509.53;;;26.82;44.11
21433;BME280;18592;49.708;10.900;2023-06-26T06:32:47;98511.53;;;26.97;43.78
21433;BME280;18592;49.708;10.900;2023-06-26T06:34:50;98500.34;;;27.13;44.21
21433;BME280;18592;49.708;10.900;2023-06-26T06:36:50;98502.34;;;27.28;43.77
21433;BME280;18592;49.708;10.900;2023-06-26T06:38:51;98508.31;;;27.42;43.56
21433;BME280;18592;49.708;10.900;2023-06-26T06:40:51;98503.44;;;27.54;43.26
21433;BME280;18592;49.708;10.900;2023-06-26T06:42:51;98501.78;;;27.69;43.31
21433;BME280;18592;49.708;10.900;2023-06-26T06:44:52;98499.66;;;27.82;43.27
21433;BME280;18592;49.708;10.900;2023-06-26T06:46:52;98509.19;;;27.96;43.26
21433;BME280;18592;49.708;10.900;2023-06-26T06:48:53;98503.13;;;28.10;42.89
21433;BME280;18592;49.708;10.900;2023-06-26T06:50:54;98509.41;;;28.22;42.88
21433;BME280;18592;49.708;10.900;2023-06-26T07:03:47;98497.00;;;28.81;42.35
21433;BME280;18592;49.708;10.900;2023-06-26T07:05:48;98493.19;;;28.92;42.06
21433;BME280;18592;49.708;10.900;2023-06-26T07:18:31;98476.28;;;30.13;40.44
21433;BME280;18592;49.708;10.900;2023-06-26T07:20:34;98484.25;;;30.11;40.63
21433;BME280;18592;49.708;10.900;2023-06-26T07:22:39;98480.28;;;30.12;40.64
21433;BME280;18592;49.708;10.900;2023-06-26T07:24:39;98481.50;;;30.14;40.72
21433;BME280;18592;49.708;10.900;2023-06-26T07:26:39;98482.00;;;30.20;40.83
21433;BME280;18592;49.708;10.900;2023-06-26T07:28:40;98475.22;;;30.25;40.65
21433;BME280;18592;49.708;10.900;2023-06-26T07:30:40;98477.28;;;30.31;40.77
21433;BME280;18592;49.708;10.900;2023-06-26T07:32:49;98484.25;;;30.37;40.56
21433;BME280;18592;49.708;10.900;2023-06-26T07:34:49;98483.50;;;30.44;41.01
21433;BME280;18592;49.708;10.900;2023-06-26T07:36:53;98478.75;;;30.51;41.05
21433;BME280;18592;49.708;10.900;2023-06-26T07:38:54;98468.41;;;30.59;40.81
21433;BME280;18592;49.708;10.900;2023-06-26T07:40:54;98472.56;;;30.68;40.93
21433;BME280;18592;49.708;10.900;2023-06-26T07:42:55;98476.25;;;30.76;40.86
21433;BME280;18592;49.708;10.900;2023-06-26T07:44:55;98475.91;;;30.85;40.74
21433;BME280;18592;49.708;10.900;2023-06-26T07:46:55;98472.00;;;30.93;40.96
21433;BME280;18592;49.708;10.900;2023-06-26T07:48:56;98467.66;;;31.02;40.85
21433;BME280;18592;49.708;10.900;2023-06-26T07:50:56;98469.78;;;31.12;40.46
21433;BME280;18592;49.708;10.900;2023-06-26T07:52:56;98471.47;;;31.20;40.38
21433;BME280;18592;49.708;10.900;2023-06-26T07:54:57;98463.50;;;31.29;40.90
21433;BME280;18592;49.708;10.900;2023-06-26T07:57:00;98460.75;;;31.40;40.52
21433;BME280;18592;49.708;10.900;2023-06-26T07:59:00;98460.44;;;31.49;40.42
21433;BME280;18592;49.708;10.900;2023-06-26T08:01:16;98456.47;;;31.57;40.79
21433;BME280;18592;49.708;10.900;2023-06-26T08:03:16;98469.03;;;31.66;40.51
21433;BME280;18592;49.708;10.900;2023-06-26T08:05:17;98462.25;;;31.74;40.53
21433;BME280;18592;49.708;10.900;2023-06-26T08:07:17;98461.50;;;31.84;39.91
21433;BME280;18592;49.708;10.900;2023-06-26T08:09:20;98463.56;;;31.94;40.35
21433;BME280;18592;49.708;10.900;2023-06-26T08:11:21;98454.38;;;32.05;39.97
21433;BME280;18592;49.708;10.900;2023-06-26T08:13:21;98445.53;;;32.13;40.52
21433;BME280;18592;49.708;10.900;2023-06-26T08:15:21;98448.41;;;32.24;39.50
21433;BME280;18592;49.708;10.900;2023-06-26T08:17:22;98448.84;;;32.33;39.58
21433;BME280;18592;49.708;10.900;2023-06-26T08:19:24;98446.06;;;32.43;39.76
21433;BME280;18592;49.708;10.900;2023-06-26T08:21:24;98459.03;;;32.55;40.16
21433;BME280;18592;49.708;10.900;2023-06-26T08:23:24;98452.19;;;32.67;39.89
21433;BME280;18592;49.708;10.900;2023-06-26T08:25:25;98445.38;;;32.75;40.09
21433;BME280;18592;49.708;10.900;2023-06-26T08:27:25;98439.34;;;32.83;39.51
21433;BME280;18592;49.708;10.900;2023-06-26T08:29:26;98448.59;;;32.94;39.72
21433;BME280;18592;49.708;10.900;2023-06-26T08:31:26;98449.88;;;33.04;39.28
21433;BME280;18592;49.708;10.900;2023-06-26T08:33:26;98451.09;;;33.13;39.32
21433;BME280;18592;49.708;10.900;2023-06-26T08:35:28;98441.81;;;33.23;39.30
21433;BME280;18592;49.708;10.900;2023-06-26T08:37:28;98455.53;;;33.36;39.14
21433;BME280;18592;49.708;10.900;2023-06-26T08:39:29;98447.84;;;33.47;38.90
21433;BME280;18592;49.708;10.900;2023-06-26T08:41:29;98445.06;;;33.57;39.11
21433;BME280;18592;49.708;10.900;2023-06-26T08:43:30;98450.66;;;33.68;39.16
21433;BME280;18592;49.708;10.900;2023-06-26T08:45:30;98449.84;;;33.78;38.74
21433;BME280;18592;49.708;10.900;2023-06-26T08:47:32;98447.00;;;33.88;38.69
21433;BME280;18592;49.708;10.900;2023-06-26T08:49:44;98447.78;;;34.00;37.73
21433;BME280;18592;49.708;10.900;2023-06-26T08:51:52;98446.97;;;34.10;37.39
21433;BME280;18592;49.708;10.900;2023-06-26T08:53:59;98441.66;;;34.22;38.20
21433;BME280;18592;49.708;10.900;2023-06-26T08:56:00;98452.13;;;34.32;38.30
21433;BME280;18592;49.708;10.900;2023-06-26T08:58:02;98442.78;;;34.42;37.78
21433;BME280;18592;49.708;10.900;2023-06-26T09:00:03;98441.09;;;34.52;37.78
21433;BME280;18592;49.708;10.900;2023-06-26T09:02:04;98447.94;;;34.62;37.42
21433;BME280;18592;49.708;10.900;2023-06-26T09:04:21;98443.03;;;34.73;37.34
21433;BME280;18592;49.708;10.900;2023-06-26T09:06:31;98433.66;;;34.79;37.24
21433;BME280;18592;49.708;10.900;2023-06-26T09:08:44;98446.19;;;34.89;37.11
21433;BME280;18592;49.708;10.900;2023-06-26T09:10:53;98443.66;;;34.98;37.04
21433;BME280;18592;49.708;10.900;2023-06-26T09:13:02;98438.78;;;35.05;36.59
21433;BME280;18592;49.708;10.900;2023-06-26T09:15:14;98436.28;;;35.15;36.73
21433;BME280;18592;49.708;10.900;2023-06-26T09:17:15;98442.28;;;35.24;37.00
21433;BME280;18592;49.708;10.900;2023-06-26T09:19:15;98438.94;;;35.32;36.66
21433;BME280;18592;49.708;10.900;2023-06-26T09:21:31;98440.88;;;35.42;36.99
21433;BME280;18592;49.708;10.900;2023-06-26T09:23:39;98441.63;;;35.53;36.37
21433;BME280;18592;49.708;10.900;2023-06-26T09:25:56;98428.56;;;35.63;36.99
21433;BME280;18592;49.708;10.900;2023-06-26T09:28:08;98432.50;;;35.72;36.66
21433;BME280;18592;49.708;10.900;2023-06-26T09:30:24;98439.69;;;35.84;36.81
21433;BME280;18592;49.708;10.900;2023-06-26T09:32:26;98436.31;;;35.96;36.70
21433;BME280;18592;49.708;10.900;2023-06-26T09:34:41;98434.59;;;36.06;36.20
21433;BME280;18592;49.708;10.900;2023-06-26T09:36:42;98432.44;;;36.17;36.28
21433;BME280;18592;49.708;10.900;2023-06-26T09:39:06;98430.69;;;36.26;35.79
21433;BME280;18592;49.708;10.900;2023-06-26T09:41:18;98431.78;;;36.36;35.95
21433;BME280;18592;49.708;10.900;2023-06-26T09:43:34;98430.06;;;36.46;35.57
21433;BME280;18592;49.708;10.900;2023-06-26T09:45:49;98427.50;;;36.55;35.36
21433;BME280;18592;49.708;10.900;2023-06-26T09:48:03;98423.72;;;36.65;36.00
21433;BME280;18592;49.708;10.900;2023-06-26T09:50:04;98425.22;;;36.73;35.07
21433;BME280;18592;49.708;10.900;2023-06-26T09:52:26;98432.34;;;36.84;35.11
21433;BME280;18592;49.708;10.900;2023-06-26T09:54:27;98424.50;;;36.92;34.85
21433;BME280;18592;49.708;10.900;2023-06-26T09:56:44;98424.38;;;37.03;34.37
21433;BME280;18592;49.708;10.900;2023-06-26T09:58:58;98424.22;;;37.13;34.79
21433;BME280;18592;49.708;10.900;2023-06-26T10:01:13;98418.34;;;37.24;34.31
21433;BME280;18592;49.708;10.900;2023-06-26T10:03:26;98411.69;;;37.34;34.71
21433;BME280;18592;49.708;10.900;2023-06-26T10:05:35;98423.69;;;37.45;34.66
21433;BME280;18592;49.708;10.900;2023-06-26T10:07:52;98418.66;;;37.52;33.92
21433;BME280;18592;49.708;10.900;2023-06-26T10:10:08;98416.88;;;37.62;33.90
21433;BME280;18592;49.708;10.900;2023-06-26T10:12:19;98415.13;;;37.68;33.51
21433;BME280;18592;49.708;10.900;2023-06-26T10:14:37;98412.53;;;37.77;33.74
21433;BME280;18592;49.708;10.900;2023-06-26T10:16:39;98402.19;;;37.87;32.90
21433;BME280;18592;49.708;10.900;2023-06-26T10:18:42;98400.81;;;37.95;33.35
21433;BME280;18592;49.708;10.900;2023-06-26T10:20:47;98401.84;;;38.04;32.23
21433;BME280;18592;49.708;10.900;2023-06-26T10:23:05;98400.81;;;38.14;33.45
21433;BME280;18592;49.708;10.900;2023-06-26T10:25:19;98411.59;;;38.23;32.99
21433;BME280;18592;49.708;10.900;2023-06-26T10:27:21;98406.59;;;38.31;33.10
21433;BME280;18592;49.708;10.900;2023-06-26T10:29:32;98401.91;;;38.40;32.90
21433;BME280;18592;49.708;10.900;2023-06-26T10:31:38;98404.16;;;38.49;33.08
21433;BME280;18592;49.708;10.900;2023-06-26T10:33:55;98402.75;;;38.57;32.21
21433;BME280;18592;49.708;10.900;2023-06-26T10:36:16;98404.63;;;38.63;31.73
21433;BME280;18592;49.708;10.900;2023-06-26T10:38:54;98402.44;;;38.71;31.84
21433;BME280;18592;49.708;10.900;2023-06-26T10:40:55;98405.50;;;38.80;32.70
21433;BME280;18592;49.708;10.900;2023-06-26T10:43:12;98406.94;;;38.88;32.27
21433;BME280;18592;49.708;10.900;2023-06-26T10:45:20;98406.75;;;38.95;32.39
21433;BME280;18592;49.708;10.900;2023-06-26T10:47:31;98408.19;;;39.03;31.79
21433;BME280;18592;49.708;10.900;2023-06-26T10:49:46;98404.72;;;39.12;31.97
21433;BME280;18592;49.708;10.900;2023-06-26T10:52:13;98397.63;;;39.20;31.74
21433;BME280;18592;49.708;10.900;2023-06-26T10:54:31;98389.66;;;39.27;31.45
21433;BME280;18592;49.708;10.900;2023-06-26T10:56:43;98386.63;;;39.34;31.97
21433;BME280;18592;49.708;10.900;2023-06-26T10:59:11;98399.56;;;39.39;31.09
21433;BME280;18592;49.708;10.900;2023-06-26T11:01:26;98393.22;;;39.48;31.15
21433;BME280;18592;49.708;10.900;2023-06-26T11:03:29;98397.94;;;39.54;30.97
21433;BME280;18592;49.708;10.900;2023-06-26T11:06:09;98390.06;;;39.58;31.12
21433;BME280;18592;49.708;10.900;2023-06-26T11:08:10;98386.25;;;39.65;31.02
21433;BME280;18592;49.708;10.900;2023-06-26T11:10:16;98386.50;;;39.70;30.54
21433;BME280;18592;49.708;10.900;2023-06-26T11:12:34;98390.84;;;39.75;29.80
21433;BME280;18592;49.708;10.900;2023-06-26T11:14:35;98388.25;;;39.80;29.84
21433;BME280;18592;49.708;10.900;2023-06-26T11:16:35;98379.94;;;39.86;29.45
21433;BME280;18592;49.708;10.900;2023-06-26T11:18:58;98386.81;;;39.88;29.49
21433;BME280;18592;49.708;10.900;2023-06-26T11:21:08;98383.88;;;39.92;28.21
21433;BME280;18592;49.708;10.900;2023-06-26T11:23:11;98380.44;;;39.97;29.49
21433;BME280;18592;49.708;10.900;2023-06-26T11:25:15;98381.13;;;40.01;29.63
21433;BME280;18592;49.708;10.900;2023-06-26T11:27:47;98376.16;;;40.05;29.38
21433;BME280;18592;49.708;10.900;2023-06-26T11:30:02;98378.47;;;40.10;29.99